DucheSS Of Scandinavia — OUZI2 — position and weather

sailwx.info

Track history (hours):
 
Tides and Currents Weather Stations Pressure Air Temp Water Temp Dewpoint Dewpoint Depression Visibility Wind Speed Wind Dir Waves Ship Positions

DucheSS Of Scandinavia

Operator: DFDS A/S

Last reported at 2015-Aug-04 15:33 UTC. Time now 2015-Aug-04 15:53 UTC.
Position N 59°01' E 010°41'.

Length 134 m; draft 5.2 m.

Type: Passenger vessel. MMSI: 219002929.

Date/timePositionNaut miles runAvg speedWind from/ knotsBaromVisibWave heightAir tempDewpointWater temp
2015-Aug-04 15:33N 59°01' E 010°41'1514.7
2015-Aug-04 14:34N 58°56' E 011°07'1 1.4
2015-Aug-04 13:33N 58°56' E 011°10'1313.0
2015-Aug-04 12:33N 59°02' E 010°48'1616.3
2015-Aug-04 11:33N 59°02' E 010°16'6 5.9
2015-Aug-04 10:33N 59°08' E 010°14'7 6.7
2015-Aug-04 09:33N 59°01' E 010°19'1515.5
2015-Aug-04 08:34N 59°02' E 010°48'1212.5
2015-Aug-04 07:33N 58°56' E 011°10'8 8.0
2015-Aug-04 06:33N 59°00' E 010°57'1616.2
2015-Aug-04 05:33N 59°01' E 010°25'9 9.1
2015-Aug-04 04:33N 59°08' E 010°14'0 0.0
2015-Aug-04 03:33N 59°08' E 010°14'0 0.0
2015-Aug-04 02:33N 59°08' E 010°14'0 0.0
2015-Aug-04 01:33N 59°08' E 010°14'0 0.0
2015-Aug-04 00:33N 59°08' E 010°14'0 0.0
2015-Aug-03 23:34N 59°08' E 010°14'2 1.9
2015-Aug-03 22:34N 59°06' E 010°14'1413.6
2015-Aug-03 21:34N 59°01' E 010°39'1515.3
2015-Aug-03 20:34N 58°56' E 011°07'4 3.6
2015-Aug-03 19:34N 58°58' E 011°02'1615.6
2015-Aug-03 18:33N 59°00' E 010°31'1111.3
2015-Aug-03 17:32N 59°07' E 010°14'3 3.4
2015-Aug-03 16:33N 59°04' E 010°15'1413.8
2015-Aug-03 15:33N 59°01' E 010°41'1514.6
2015-Aug-03 14:34N 58°56' E 011°07'1 1.4
2015-Aug-03 13:33N 58°56' E 011°10'1312.6
2015-Aug-03 12:33N 59°02' E 010°48'1716.9
2015-Aug-03 11:34N 59°02' E 010°16'6 5.9
2015-Aug-03 10:33N 59°08' E 010°14'7 6.8
2015-Aug-03 09:33N 59°01' E 010°19'1515.0
2015-Aug-03 08:34N 59°02' E 010°48'1312.3
2015-Aug-03 07:32N 58°56' E 011°10'8 8.1
2015-Aug-03 06:33N 59°00' E 010°57'1515.4
2015-Aug-03 05:33N 59°01' E 010°27'10 9.7
2015-Aug-03 04:33N 59°08' E 010°14'0 0.0
2015-Aug-03 03:33N 59°08' E 010°14'0 0.0
2015-Aug-03 02:33N 59°08' E 010°14'0 0.0
2015-Aug-03 01:33N 59°08' E 010°14'0 0.0
2015-Aug-03 00:33N 59°08' E 010°14'0 0.0
2015-Aug-02 23:33N 59°08' E 010°14'3 2.9
2015-Aug-02 22:33N 59°05' E 010°15'1414.3
2015-Aug-02 21:34N 59°01' E 010°42'1515.2
2015-Aug-02 20:33N 58°56' E 011°09'6 6.4
2015-Aug-02 19:33N 58°60' E 010°59'1616.2
2015-Aug-02 18:34N 59°01' E 010°28'1010.1
2015-Aug-02 17:33N 59°08' E 010°14'5 4.8
2015-Aug-02 16:33N 59°03' E 010°15'1414.3
2015-Aug-02 15:33N 59°02' E 010°43'13 5.3
2015-Aug-02 13:07N 58°56' E 011°05'916.0
2015-Aug-02 12:33N 59°01' E 010°50'10 2.9
2015-Aug-02 09:09N 59°01' E 010°31'915.4
2015-Aug-02 08:34N 59°02' E 010°49'1212.5
2015-Aug-02 07:34N 58°56' E 011°10'8 8.0
2015-Aug-02 06:32N 59°00' E 010°56'1616.0
2015-Aug-02 05:33N 59°01' E 010°26'9 2.4
2015-Aug-02 01:34N 59°08' E 010°14'0 0.0
2015-Aug-02 00:33N 59°08' E 010°14'0 0.0
2015-Aug-01 23:33N 59°08' E 010°14'5 4.6
2015-Aug-01 22:33N 59°03' E 010°15'1414.4
2015-Aug-01 21:33N 59°02' E 010°43'1514.7
2015-Aug-01 20:33N 58°56' E 011°09'5 5.0
2015-Aug-01 19:33N 58°59' E 011°01'1616.2
2015-Aug-01 18:33N 59°00' E 010°30'1110.9
2015-Aug-01 17:33N 59°08' E 010°14'4 4.4
2015-Aug-01 16:33N 59°03' E 010°15'1413.9
2015-Aug-01 15:34N 59°01' E 010°42'1514.5
2015-Aug-01 14:32N 58°56' E 011°09'2 1.4
2015-Aug-01 13:13N 58°56' E 011°05'1116.3
2015-Aug-01 12:34N 59°02' E 010°47'1616.3
2015-Aug-01 11:34N 59°02' E 010°16'6 5.7
2015-Aug-01 10:33N 59°08' E 010°14'6 6.1
2015-Aug-01 09:33N 59°02' E 010°16'1616.0
2015-Aug-01 08:33N 59°02' E 010°48'1312.7
2015-Aug-01 07:32N 58°56' E 011°10'8 8.5
2015-Aug-01 06:33N 59°00' E 010°56'1616.1
2015-Aug-01 05:33N 59°01' E 010°25'9 9.0
2015-Aug-01 04:33N 59°08' E 010°14'0 0.0
2015-Aug-01 03:33N 59°08' E 010°14'0 0.0
2015-Aug-01 02:33N 59°08' E 010°14'0 0.0
2015-Aug-01 01:33N 59°08' E 010°14'0 0.0
2015-Aug-01 00:33N 59°08' E 010°14'0 0.0
2015-Jul-31 23:33N 59°08' E 010°14'3 2.7
2015-Jul-31 22:33N 59°05' E 010°15'1414.0
2015-Jul-31 21:33N 59°01' E 010°41'1515.2
2015-Jul-31 20:33N 58°56' E 011°08'4 3.6
2015-Jul-31 19:33N 58°58' E 011°03'1616.0
2015-Jul-31 18:33N 59°01' E 010°32'1210.7
2015-Jul-31 17:27N 59°08' E 010°14'3 3.4
2015-Jul-31 16:33N 59°05' E 010°15'1414.1
2015-Jul-31 15:33N 59°02' E 010°42'13 5.3
2015-Jul-31 13:05N 58°56' E 011°05'916.2
2015-Jul-31 12:33N 59°01' E 010°51'1616.1
2015-Jul-31 11:33N 59°01' E 010°19'7 6.8
2015-Jul-31 10:31N 59°08' E 010°14'5 5.1
2015-Jul-31 09:33N 59°03' E 010°15'1616.2
2015-Jul-31 08:33N 59°02' E 010°47'1313.0
2015-Jul-31 07:31N 58°56' E 011°10'8 8.2
2015-Jul-31 06:33N 59°00' E 010°57'1615.6
2015-Jul-31 05:34N 59°00' E 010°27'10 9.8
2015-Jul-31 04:33N 59°08' E 010°14'0 0.0
2015-Jul-31 03:33N 59°08' E 010°14'0 0.0
2015-Jul-31 02:33N 59°08' E 010°14'0 0.0
2015-Jul-31 01:33N 59°08' E 010°14'0 0.0
2015-Jul-31 00:33N 59°08' E 010°14'0 0.0
2015-Jul-30 23:33N 59°08' E 010°14'4 3.5
2015-Jul-30 22:33N 59°04' E 010°15'1414.0
2015-Jul-30 21:33N 59°01' E 010°41'1414.4
2015-Jul-30 20:34N 58°56' E 011°07'4 4.4
2015-Jul-30 19:33N 58°59' E 011°01'1616.2
2015-Jul-30 18:34N 59°00' E 010°30'1110.8
2015-Jul-30 17:33N 59°08' E 010°14'3 3.0
2015-Jul-30 16:33N 59°05' E 010°15'1413.9
2015-Jul-30 15:34N 59°01' E 010°41'1514.8
2015-Jul-30 14:32N 58°56' E 011°08'11 5.4
2015-Jul-30 12:33N 59°01' E 010°50'1716.5
2015-Jul-30 11:33N 59°01' E 010°18'7 6.6
2015-Jul-30 10:32N 59°08' E 010°14'5 5.2
2015-Jul-30 09:33N 59°03' E 010°15'1716.9
2015-Jul-30 08:33N 59°01' E 010°48'5 2.3
2015-Jul-30 06:33N 59°00' E 010°57'1616.2
2015-Jul-30 05:33N 59°01' E 010°26'9 9.3
2015-Jul-30 04:34N 59°08' E 010°14'0 0.0
2015-Jul-30 03:33N 59°08' E 010°14'0 0.0
2015-Jul-30 02:33N 59°08' E 010°14'0 0.0
2015-Jul-30 01:33N 59°08' E 010°14'0 0.0
2015-Jul-30 00:33N 59°08' E 010°14'0 0.0
2015-Jul-29 23:32N 59°08' E 010°14'3 3.4
2015-Jul-29 22:33N 59°04' E 010°15'1413.9
2015-Jul-29 21:33N 59°01' E 010°41'11 5.3
2015-Jul-29 19:31N 58°59' E 011°01'1616.7
2015-Jul-29 18:33N 59°00' E 010°30'1110.8
2015-Jul-29 17:31N 59°08' E 010°14'3 3.5
2015-Jul-29 16:33N 59°04' E 010°15'1514.7
2015-Jul-29 15:33N 59°01' E 010°43'12 5.1
2015-Jul-29 13:09N 58°57' E 011°04'1016.4
2015-Jul-29 12:33N 59°01' E 010°47'1715.3
2015-Jul-29 11:26N 59°04' E 010°15'3 3.5
2015-Jul-29 10:32N 59°08' E 010°14'5 4.8
2015-Jul-29 09:34N 59°03' E 010°15'1616.3
2015-Jul-29 08:33N 59°01' E 010°47'6 3.0
2015-Jul-29 06:34N 58°60' E 010°58'1716.5
2015-Jul-29 05:33N 59°01' E 010°26'9 9.3
2015-Jul-29 04:33N 59°08' E 010°14'0 0.0
2015-Jul-29 03:33N 59°08' E 010°14'0 0.0
2015-Jul-29 02:33N 59°08' E 010°14'0 0.0
2015-Jul-29 01:33N 59°08' E 010°14'0 0.0
2015-Jul-29 00:34N 59°08' E 010°14'0 0.0
2015-Jul-28 23:33N 59°08' E 010°14'2 2.4
2015-Jul-28 22:33N 59°05' E 010°14'1313.5
2015-Jul-28 21:33N 59°01' E 010°39'1714.4
2015-Jul-28 20:24N 58°56' E 011°10'5 5.6
2015-Jul-28 19:33N 58°58' E 011°02'1514.9
2015-Jul-28 18:33N 59°01' E 010°33'1210.1
2015-Jul-28 17:20N 59°08' E 010°14'3 3.2
2015-Jul-28 16:32N 59°05' E 010°14'1313.7
2015-Jul-28 15:34N 59°01' E 010°39'1615.3
2015-Jul-28 14:30N 58°56' E 011°09'1 0.8
2015-Jul-28 13:33N 58°56' E 011°10'1212.4
2015-Jul-28 12:33N 59°01' E 010°48'1716.5
2015-Jul-28 11:33N 59°02' E 010°16'6 6.1
2015-Jul-28 10:33N 59°08' E 010°14'5 4.7
2015-Jul-28 09:33N 59°03' E 010°15'1616.3
2015-Jul-28 08:33N 59°02' E 010°47'1313.3
2015-Jul-28 07:33N 58°56' E 011°10'9 9.0
2015-Jul-28 06:33N 59°00' E 010°55'1616.4
2015-Jul-28 05:33N 59°01' E 010°23'8 8.5
2015-Jul-28 04:33N 59°08' E 010°14'0 0.0
2015-Jul-28 03:33N 59°08' E 010°14'0 0.0
2015-Jul-28 02:33N 59°08' E 010°14'0 0.0
2015-Jul-28 01:34N 59°08' E 010°14'0 0.0
2015-Jul-28 00:33N 59°08' E 010°14'0 0.0
2015-Jul-27 23:33N 59°08' E 010°14'3 2.9
2015-Jul-27 22:33N 59°05' E 010°15'1413.8
2015-Jul-27 21:34N 59°01' E 010°41'1514.5
2015-Jul-27 20:33N 58°56' E 011°07'5 4.9
2015-Jul-27 19:33N 58°59' E 011°00'1616.2
2015-Jul-27 18:34N 59°01' E 010°29'1010.2
2015-Jul-27 17:33N 59°08' E 010°14'3 2.6
2015-Jul-27 16:33N 59°05' E 010°15'1313.6
2015-Jul-27 15:34N 59°01' E 010°40'1515.1
2015-Jul-27 14:34N 58°56' E 011°07'1 1.5
2015-Jul-27 13:33N 58°56' E 011°10'1212.3
2015-Jul-27 12:34N 59°01' E 010°49'1716.9
2015-Jul-27 11:33N 59°02' E 010°16'6 5.9
2015-Jul-27 10:33N 59°08' E 010°14'6 6.4
2015-Jul-27 09:33N 59°01' E 010°18'1616.1
2015-Jul-27 08:34N 59°02' E 010°49'12 8.8
2015-Jul-27 07:10N 58°56' E 011°10'712.2
2015-Jul-27 06:33N 58°60' E 010°58'1616.5
2015-Jul-27 05:33N 59°01' E 010°26'9 9.4
2015-Jul-27 04:33N 59°08' E 010°14'0 0.0
2015-Jul-27 00:25N 59°08' E 010°14'0 0.0
2015-Jul-26 23:31N 59°08' E 010°14'2 2.1
2015-Jul-26 22:32N 59°05' E 010°14'1313.8
2015-Jul-26 21:33N 59°01' E 010°39'1515.4
2015-Jul-26 20:34N 58°56' E 011°07'5 5.0
2015-Jul-26 19:33N 58°59' E 010°60'1615.9
2015-Jul-26 18:33N 59°00' E 010°29'1110.6
2015-Jul-26 17:33N 59°08' E 010°14'5 4.7
2015-Jul-26 16:30N 59°03' E 010°15'1515.4
2015-Jul-26 15:33N 59°01' E 010°43'12 5.1
2015-Jul-26 13:07N 58°56' E 011°05'916.6
2015-Jul-26 12:34N 59°01' E 010°50'1716.6
2015-Jul-26 11:33N 59°01' E 010°18'7 4.7
2015-Jul-26 10:09N 59°08' E 010°14'6 9.5
2015-Jul-26 09:33N 59°02' E 010°15'1716.5
2015-Jul-26 08:34N 59°02' E 010°48'6 2.8
2015-Jul-26 06:34N 58°60' E 010°58'1616.1
2015-Jul-26 05:33N 59°01' E 010°27'10 9.7
2015-Jul-26 04:33N 59°08' E 010°14'0 0.0
2015-Jul-26 03:05N 59°08' E 010°14'0 0.0
2015-Jul-25 23:13N 59°08' E 010°14'3 3.8
2015-Jul-25 22:28N 59°05' E 010°15'1314.4
2015-Jul-25 21:34N 59°01' E 010°39'1615.5
2015-Jul-25 20:33N 58°56' E 011°07'4 3.8
2015-Jul-25 19:34N 58°58' E 011°02'1514.9
2015-Jul-25 18:33N 59°01' E 010°33'1211.9
2015-Jul-25 17:33N 59°07' E 010°14'1 1.1
2015-Jul-25 16:33N 59°06' E 010°14'1414.4
2015-Jul-25 15:34N 59°01' E 010°41'  
Track history (hours):
 
Tides and Currents Weather Stations Pressure Air Temp Water Temp Dewpoint Dewpoint Depression Visibility Wind Speed Wind Dir Waves Ship Positions

DucheSS Of Scandinavia

Operator: DFDS A/S

Last reported at 2015-Aug-04 15:33 UTC. Time now 2015-Aug-04 15:53 UTC.
Position N 59°01' E 010°41'.

Length 134 m; draft 5.2 m.

Type: Passenger vessel. MMSI: 219002929.

Date/timePositionNaut miles runAvg speedWind from/ knotsBaromVisibWave heightAir tempDewpointWater temp
2015-Aug-04 15:33N 59°01' E 010°41'1514.7
2015-Aug-04 14:34N 58°56' E 011°07'1 1.4
2015-Aug-04 13:33N 58°56' E 011°10'1313.0
2015-Aug-04 12:33N 59°02' E 010°48'1616.3
2015-Aug-04 11:33N 59°02' E 010°16'6 5.9
2015-Aug-04 10:33N 59°08' E 010°14'7 6.7
2015-Aug-04 09:33N 59°01' E 010°19'1515.5
2015-Aug-04 08:34N 59°02' E 010°48'1212.5
2015-Aug-04 07:33N 58°56' E 011°10'8 8.0
2015-Aug-04 06:33N 59°00' E 010°57'1616.2
2015-Aug-04 05:33N 59°01' E 010°25'9 9.1
2015-Aug-04 04:33N 59°08' E 010°14'0 0.0
2015-Aug-04 03:33N 59°08' E 010°14'0 0.0
2015-Aug-04 02:33N 59°08' E 010°14'0 0.0
2015-Aug-04 01:33N 59°08' E 010°14'0 0.0
2015-Aug-04 00:33N 59°08' E 010°14'0 0.0
2015-Aug-03 23:34N 59°08' E 010°14'2 1.9
2015-Aug-03 22:34N 59°06' E 010°14'1413.6
2015-Aug-03 21:34N 59°01' E 010°39'1515.3
2015-Aug-03 20:34N 58°56' E 011°07'4 3.6
2015-Aug-03 19:34N 58°58' E 011°02'1615.6
2015-Aug-03 18:33N 59°00' E 010°31'1111.3
2015-Aug-03 17:32N 59°07' E 010°14'3 3.4
2015-Aug-03 16:33N 59°04' E 010°15'1413.8
2015-Aug-03 15:33N 59°01' E 010°41'1514.6
2015-Aug-03 14:34N 58°56' E 011°07'1 1.4
2015-Aug-03 13:33N 58°56' E 011°10'1312.6
2015-Aug-03 12:33N 59°02' E 010°48'1716.9
2015-Aug-03 11:34N 59°02' E 010°16'6 5.9
2015-Aug-03 10:33N 59°08' E 010°14'7 6.8
2015-Aug-03 09:33N 59°01' E 010°19'1515.0
2015-Aug-03 08:34N 59°02' E 010°48'1312.3
2015-Aug-03 07:32N 58°56' E 011°10'8 8.1
2015-Aug-03 06:33N 59°00' E 010°57'1515.4
2015-Aug-03 05:33N 59°01' E 010°27'10 9.7
2015-Aug-03 04:33N 59°08' E 010°14'0 0.0
2015-Aug-03 03:33N 59°08' E 010°14'0 0.0
2015-Aug-03 02:33N 59°08' E 010°14'0 0.0
2015-Aug-03 01:33N 59°08' E 010°14'0 0.0
2015-Aug-03 00:33N 59°08' E 010°14'0 0.0
2015-Aug-02 23:33N 59°08' E 010°14'3 2.9
2015-Aug-02 22:33N 59°05' E 010°15'1414.3
2015-Aug-02 21:34N 59°01' E 010°42'1515.2
2015-Aug-02 20:33N 58°56' E 011°09'6 6.4
2015-Aug-02 19:33N 58°60' E 010°59'1616.2
2015-Aug-02 18:34N 59°01' E 010°28'1010.1
2015-Aug-02 17:33N 59°08' E 010°14'5 4.8
2015-Aug-02 16:33N 59°03' E 010°15'1414.3
2015-Aug-02 15:33N 59°02' E 010°43'13 5.3
2015-Aug-02 13:07N 58°56' E 011°05'916.0
2015-Aug-02 12:33N 59°01' E 010°50'10 2.9
2015-Aug-02 09:09N 59°01' E 010°31'915.4
2015-Aug-02 08:34N 59°02' E 010°49'1212.5
2015-Aug-02 07:34N 58°56' E 011°10'8 8.0
2015-Aug-02 06:32N 59°00' E 010°56'1616.0
2015-Aug-02 05:33N 59°01' E 010°26'9 2.4
2015-Aug-02 01:34N 59°08' E 010°14'0 0.0
2015-Aug-02 00:33N 59°08' E 010°14'0 0.0
2015-Aug-01 23:33N 59°08' E 010°14'5 4.6
2015-Aug-01 22:33N 59°03' E 010°15'1414.4
2015-Aug-01 21:33N 59°02' E 010°43'1514.7
2015-Aug-01 20:33N 58°56' E 011°09'5 5.0
2015-Aug-01 19:33N 58°59' E 011°01'1616.2
2015-Aug-01 18:33N 59°00' E 010°30'1110.9
2015-Aug-01 17:33N 59°08' E 010°14'4 4.4
2015-Aug-01 16:33N 59°03' E 010°15'1413.9
2015-Aug-01 15:34N 59°01' E 010°42'1514.5
2015-Aug-01 14:32N 58°56' E 011°09'2 1.4
2015-Aug-01 13:13N 58°56' E 011°05'1116.3
2015-Aug-01 12:34N 59°02' E 010°47'1616.3
2015-Aug-01 11:34N 59°02' E 010°16'6 5.7
2015-Aug-01 10:33N 59°08' E 010°14'6 6.1
2015-Aug-01 09:33N 59°02' E 010°16'1616.0
2015-Aug-01 08:33N 59°02' E 010°48'1312.7
2015-Aug-01 07:32N 58°56' E 011°10'8 8.5
2015-Aug-01 06:33N 59°00' E 010°56'1616.1
2015-Aug-01 05:33N 59°01' E 010°25'9 9.0
2015-Aug-01 04:33N 59°08' E 010°14'0 0.0
2015-Aug-01 03:33N 59°08' E 010°14'0 0.0
2015-Aug-01 02:33N 59°08' E 010°14'0 0.0
2015-Aug-01 01:33N 59°08' E 010°14'0 0.0
2015-Aug-01 00:33N 59°08' E 010°14'0 0.0
2015-Jul-31 23:33N 59°08' E 010°14'3 2.7
2015-Jul-31 22:33N 59°05' E 010°15'1414.0
2015-Jul-31 21:33N 59°01' E 010°41'1515.2
2015-Jul-31 20:33N 58°56' E 011°08'4 3.6
2015-Jul-31 19:33N 58°58' E 011°03'1616.0
2015-Jul-31 18:33N 59°01' E 010°32'1210.7
2015-Jul-31 17:27N 59°08' E 010°14'3 3.4
2015-Jul-31 16:33N 59°05' E 010°15'1414.1
2015-Jul-31 15:33N 59°02' E 010°42'13 5.3
2015-Jul-31 13:05N 58°56' E 011°05'916.2
2015-Jul-31 12:33N 59°01' E 010°51'1616.1
2015-Jul-31 11:33N 59°01' E 010°19'7 6.8
2015-Jul-31 10:31N 59°08' E 010°14'5 5.1
2015-Jul-31 09:33N 59°03' E 010°15'1616.2
2015-Jul-31 08:33N 59°02' E 010°47'1313.0
2015-Jul-31 07:31N 58°56' E 011°10'8 8.2
2015-Jul-31 06:33N 59°00' E 010°57'1615.6
2015-Jul-31 05:34N 59°00' E 010°27'10 9.8
2015-Jul-31 04:33N 59°08' E 010°14'0 0.0
2015-Jul-31 03:33N 59°08' E 010°14'0 0.0
2015-Jul-31 02:33N 59°08' E 010°14'0 0.0
2015-Jul-31 01:33N 59°08' E 010°14'0 0.0
2015-Jul-31 00:33N 59°08' E 010°14'0 0.0
2015-Jul-30 23:33N 59°08' E 010°14'4 3.5
2015-Jul-30 22:33N 59°04' E 010°15'1414.0
2015-Jul-30 21:33N 59°01' E 010°41'1414.4
2015-Jul-30 20:34N 58°56' E 011°07'4 4.4
2015-Jul-30 19:33N 58°59' E 011°01'1616.2
2015-Jul-30 18:34N 59°00' E 010°30'1110.8
2015-Jul-30 17:33N 59°08' E 010°14'3 3.0
2015-Jul-30 16:33N 59°05' E 010°15'1413.9
2015-Jul-30 15:34N 59°01' E 010°41'1514.8
2015-Jul-30 14:32N 58°56' E 011°08'11 5.4
2015-Jul-30 12:33N 59°01' E 010°50'1716.5
2015-Jul-30 11:33N 59°01' E 010°18'7 6.6
2015-Jul-30 10:32N 59°08' E 010°14'5 5.2
2015-Jul-30 09:33N 59°03' E 010°15'1716.9
2015-Jul-30 08:33N 59°01' E 010°48'5 2.3
2015-Jul-30 06:33N 59°00' E 010°57'1616.2
2015-Jul-30 05:33N 59°01' E 010°26'9 9.3
2015-Jul-30 04:34N 59°08' E 010°14'0 0.0
2015-Jul-30 03:33N 59°08' E 010°14'0 0.0
2015-Jul-30 02:33N 59°08' E 010°14'0 0.0
2015-Jul-30 01:33N 59°08' E 010°14'0 0.0
2015-Jul-30 00:33N 59°08' E 010°14'0 0.0
2015-Jul-29 23:32N 59°08' E 010°14'3 3.4
2015-Jul-29 22:33N 59°04' E 010°15'1413.9
2015-Jul-29 21:33N 59°01' E 010°41'11 5.3
2015-Jul-29 19:31N 58°59' E 011°01'1616.7
2015-Jul-29 18:33N 59°00' E 010°30'1110.8
2015-Jul-29 17:31N 59°08' E 010°14'3 3.5
2015-Jul-29 16:33N 59°04' E 010°15'1514.7
2015-Jul-29 15:33N 59°01' E 010°43'12 5.1
2015-Jul-29 13:09N 58°57' E 011°04'1016.4
2015-Jul-29 12:33N 59°01' E 010°47'1715.3
2015-Jul-29 11:26N 59°04' E 010°15'3 3.5
2015-Jul-29 10:32N 59°08' E 010°14'5 4.8
2015-Jul-29 09:34N 59°03' E 010°15'1616.3
2015-Jul-29 08:33N 59°01' E 010°47'6 3.0
2015-Jul-29 06:34N 58°60' E 010°58'1716.5
2015-Jul-29 05:33N 59°01' E 010°26'9 9.3
2015-Jul-29 04:33N 59°08' E 010°14'0 0.0
2015-Jul-29 03:33N 59°08' E 010°14'0 0.0
2015-Jul-29 02:33N 59°08' E 010°14'0 0.0
2015-Jul-29 01:33N 59°08' E 010°14'0 0.0
2015-Jul-29 00:34N 59°08' E 010°14'0 0.0
2015-Jul-28 23:33N 59°08' E 010°14'2 2.4
2015-Jul-28 22:33N 59°05' E 010°14'1313.5
2015-Jul-28 21:33N 59°01' E 010°39'1714.4
2015-Jul-28 20:24N 58°56' E 011°10'5 5.6
2015-Jul-28 19:33N 58°58' E 011°02'1514.9
2015-Jul-28 18:33N 59°01' E 010°33'1210.1
2015-Jul-28 17:20N 59°08' E 010°14'3 3.2
2015-Jul-28 16:32N 59°05' E 010°14'1313.7
2015-Jul-28 15:34N 59°01' E 010°39'1615.3
2015-Jul-28 14:30N 58°56' E 011°09'1 0.8
2015-Jul-28 13:33N 58°56' E 011°10'1212.4
2015-Jul-28 12:33N 59°01' E 010°48'1716.5
2015-Jul-28 11:33N 59°02' E 010°16'6 6.1
2015-Jul-28 10:33N 59°08' E 010°14'5 4.7
2015-Jul-28 09:33N 59°03' E 010°15'1616.3
2015-Jul-28 08:33N 59°02' E 010°47'1313.3
2015-Jul-28 07:33N 58°56' E 011°10'9 9.0
2015-Jul-28 06:33N 59°00' E 010°55'1616.4
2015-Jul-28 05:33N 59°01' E 010°23'8 8.5
2015-Jul-28 04:33N 59°08' E 010°14'0 0.0
2015-Jul-28 03:33N 59°08' E 010°14'0 0.0
2015-Jul-28 02:33N 59°08' E 010°14'0 0.0
2015-Jul-28 01:34N 59°08' E 010°14'0 0.0
2015-Jul-28 00:33N 59°08' E 010°14'0 0.0
2015-Jul-27 23:33N 59°08' E 010°14'3 2.9
2015-Jul-27 22:33N 59°05' E 010°15'1413.8
2015-Jul-27 21:34N 59°01' E 010°41'1514.5
2015-Jul-27 20:33N 58°56' E 011°07'5 4.9
2015-Jul-27 19:33N 58°59' E 011°00'1616.2
2015-Jul-27 18:34N 59°01' E 010°29'1010.2
2015-Jul-27 17:33N 59°08' E 010°14'3 2.6
2015-Jul-27 16:33N 59°05' E 010°15'1313.6
2015-Jul-27 15:34N 59°01' E 010°40'1515.1
2015-Jul-27 14:34N 58°56' E 011°07'1 1.5
2015-Jul-27 13:33N 58°56' E 011°10'1212.3
2015-Jul-27 12:34N 59°01' E 010°49'1716.9
2015-Jul-27 11:33N 59°02' E 010°16'6 5.9
2015-Jul-27 10:33N 59°08' E 010°14'6 6.4
2015-Jul-27 09:33N 59°01' E 010°18'1616.1
2015-Jul-27 08:34N 59°02' E 010°49'12 8.8
2015-Jul-27 07:10N 58°56' E 011°10'712.2
2015-Jul-27 06:33N 58°60' E 010°58'1616.5
2015-Jul-27 05:33N 59°01' E 010°26'9 9.4
2015-Jul-27 04:33N 59°08' E 010°14'0 0.0
2015-Jul-27 00:25N 59°08' E 010°14'0 0.0
2015-Jul-26 23:31N 59°08' E 010°14'2 2.1
2015-Jul-26 22:32N 59°05' E 010°14'1313.8
2015-Jul-26 21:33N 59°01' E 010°39'1515.4
2015-Jul-26 20:34N 58°56' E 011°07'5 5.0
2015-Jul-26 19:33N 58°59' E 010°60'1615.9
2015-Jul-26 18:33N 59°00' E 010°29'1110.6
2015-Jul-26 17:33N 59°08' E 010°14'5 4.7
2015-Jul-26 16:30N 59°03' E 010°15'1515.4
2015-Jul-26 15:33N 59°01' E 010°43'12 5.1
2015-Jul-26 13:07N 58°56' E 011°05'916.6
2015-Jul-26 12:34N 59°01' E 010°50'1716.6
2015-Jul-26 11:33N 59°01' E 010°18'7 4.7
2015-Jul-26 10:09N 59°08' E 010°14'6 9.5
2015-Jul-26 09:33N 59°02' E 010°15'1716.5
2015-Jul-26 08:34N 59°02' E 010°48'6 2.8
2015-Jul-26 06:34N 58°60' E 010°58'1616.1
2015-Jul-26 05:33N 59°01' E 010°27'10 9.7
2015-Jul-26 04:33N 59°08' E 010°14'0 0.0
2015-Jul-26 03:05N 59°08' E 010°14'0 0.0
2015-Jul-25 23:13N 59°08' E 010°14'3 3.8
2015-Jul-25 22:28N 59°05' E 010°15'1314.4
2015-Jul-25 21:34N 59°01' E 010°39'1615.5
2015-Jul-25 20:33N 58°56' E 011°07'4 3.8
2015-Jul-25 19:34N 58°58' E 011°02'1514.9
2015-Jul-25 18:33N 59°01' E 010°33'1211.9
2015-Jul-25 17:33N 59°07' E 010°14'1 1.1
2015-Jul-25 16:33N 59°06' E 010°14'1414.4
2015-Jul-25 15:34N 59°01' E 010°41'  

Dump ship's entire track history